Time;durP1;ratioP1;P1;durP2;ratioP2;P2;SDS_P1;SDS_P2;PMS_P1;PMS_P2;Temp;Humidity;BMP_temperature;BMP_pressure;BME280_temperature;BME280_humidity;BME280_pressure;Samples;Min_cycle;Max_cycle;Signal;HPM_P1;HPM_P2
2021/06/16 00:00:37;;;;;;;;;;;;;;;19.95;74.52;100262.66;5013910;28;2050;-41
2021/06/16 00:03:06;;;;;;;;;;;;;;;19.95;73.84;100256.44;5013625;28;1817;-41
2021/06/16 00:05:35;;;;;;;;;;;;;;;19.97;74.61;100249.06;5014175;28;1843;-41
2021/06/16 00:08:02;;;;;;;;;;;;;;;19.95;75.30;100254.59;5014248;28;1581;-41
2021/06/16 00:10:29;;;;;;;;;;;;;;;19.90;74.80;100256.91;5013910;28;1963;-41
2021/06/16 00:13:00;;;;;;;;;;;;;;;19.92;73.91;100243.34;5015034;28;1068;-41
2021/06/16 00:15:28;;;;;;;;;;;;;;;19.95;74.45;100259.13;5013975;28;1906;-41
2021/06/16 00:18:04;;;;;;;;;;;;;;;19.93;75.09;100250.38;5013579;28;1662;-42
2021/06/16 00:20:31;;;;;;;;;;;;;;;19.92;74.67;100256.75;5011275;28;1627;-41
2021/06/16 00:22:58;;;;;;;;;;;;;;;19.91;73.60;100273.84;5014017;28;1844;-41
2021/06/16 00:25:25;;;;;;;;;;;;;;;19.92;74.29;100254.09;5013815;28;1634;-41
2021/06/16 00:27:56;;;;;;;;;;;;;;;19.93;74.41;100261.13;5014018;28;1560;-41
2021/06/16 00:30:24;;;;;;;;;;;;;;;19.91;73.72;100247.00;5014105;28;1812;-41
2021/06/16 00:32:54;;;;;;;;;;;;;;;19.93;74.38;100272.69;5012535;28;1576;-41
2021/06/16 00:35:27;;;;;;;;;;;;;;;19.94;73.41;100252.91;5013782;28;1977;-41
2021/06/16 00:37:59;;;;;;;;;;;;;;;19.92;74.38;100252.22;5013337;28;1824;-41
2021/06/16 00:40:27;;;;;;;;;;;;;;;19.92;74.65;100252.22;5006461;28;1478;-41
2021/06/16 00:42:57;;;;;;;;;;;;;;;19.91;74.31;100257.75;5014803;28;1374;-41
2021/06/16 00:45:23;;;;;;;;;;;;;;;19.91;73.43;100277.38;5013642;28;2069;-41
2021/06/16 00:47:55;;;;;;;;;;;;;;;19.91;73.35;100255.91;5013377;28;1940;-41
2021/06/16 00:50:28;;;;;;;;;;;;;;;19.96;74.05;100274.25;5013450;28;1630;-41
2021/06/16 00:52:56;;;;;;;;;;;;;;;19.90;73.94;100261.44;5009829;28;1535;-41
2021/06/16 00:55:26;;;;;;;;;;;;;;;19.88;73.63;100284.91;5012887;28;1906;-41
2021/06/16 00:57:52;;;;;;;;;;;;;;;19.88;74.24;100258.06;5013082;28;1100;-41
2021/06/16 01:00:21;;;;;;;;;;;;;;;19.93;73.75;100266.50;5013069;28;1859;-41
2021/06/16 01:03:03;;;;;;;;;;;;;;;19.91;73.82;100265.81;5011535;28;1583;-41
2021/06/16 01:05:34;;;;;;;;;;;;;;;19.88;75.06;100261.59;5012802;28;1667;-41
2021/06/16 01:08:03;;;;;;;;;;;;;;;19.89;74.39;100281.22;5013301;28;1629;-41
2021/06/16 01:10:34;;;;;;;;;;;;;;;19.86;73.42;100291.25;5013796;28;1103;-41
2021/06/16 01:13:11;;;;;;;;;;;;;;;19.84;72.76;100262.91;5013375;28;1796;-41
2021/06/16 01:15:46;;;;;;;;;;;;;;;19.92;72.30;100271.03;5013254;28;1907;-41
2021/06/16 01:18:21;;;;;;;;;;;;;;;19.89;72.99;100291.94;5009835;28;1599;-41
2021/06/16 01:20:55;;;;;;;;;;;;;;;19.89;73.57;100283.91;5013097;28;1516;-41
2021/06/16 01:23:51;;;;;;;;;;;;;;;19.89;73.46;100291.94;5013442;28;1851;-41
2021/06/16 01:26:27;;;;;;;;;;;;;;;19.91;73.09;100280.06;5008454;28;1768;-41
2021/06/16 01:28:59;;;;;;;;;;;;;;;19.89;73.36;100294.63;5012304;28;1580;-42
2021/06/16 01:31:37;;;;;;;;;;;;;;;19.89;73.47;100297.31;5013692;28;1645;-41
2021/06/16 01:34:12;;;;;;;;;;;;;;;19.93;73.72;100277.22;5010266;28;1898;-41
2021/06/16 01:36:49;;;;;;;;;;;;;;;19.89;74.40;100275.84;5012108;28;1089;-41
2021/06/16 01:39:18;;;;;;;;;;;;;;;19.88;73.38;100295.63;5012323;28;2055;-41
2021/06/16 01:41:53;;;;;;;;;;;;;;;19.85;73.58;100288.72;5012781;28;1768;-41
2021/06/16 01:44:21;;;;;;;;;;;;;;;19.89;73.86;100292.78;5013109;28;2117;-41
2021/06/16 01:46:49;;;;;;;;;;;;;;;19.92;74.67;100281.75;5011022;28;1694;-41
2021/06/16 01:49:20;;;;;;;;;;;;;;;19.85;74.63;100251.16;5013557;28;2039;-41
2021/06/16 01:51:47;;;;;;;;;;;;;;;19.83;74.45;100285.34;5012653;28;1910;-41
2021/06/16 01:54:15;;;;;;;;;;;;;;;19.88;73.61;100292.97;5013817;28;1910;-41
2021/06/16 01:56:42;;;;;;;;;;;;;;;19.89;73.47;100287.41;5013226;28;1076;-41
2021/06/16 01:59:19;;;;;;;;;;;;;;;19.88;73.27;100287.59;5012446;28;1736;-41
2021/06/16 02:01:58;;;;;;;;;;;;;;;19.91;74.16;100274.69;5025920;23;3677;-80
2021/06/16 02:04:33;;;;;;;;;;;;;;;19.91;73.22;100295.31;5032301;28;1690;-80
2021/06/16 02:07:03;;;;;;;;;;;;;;;19.91;73.44;100279.22;5027398;28;1653;-83
2021/06/16 02:09:33;;;;;;;;;;;;;;;19.90;74.17;100277.53;5046093;28;1712;-83
2021/06/16 02:12:04;;;;;;;;;;;;;;;19.92;73.91;100280.91;5038619;28;1609;-84
2021/06/16 02:14:46;;;;;;;;;;;;;;;19.90;73.49;100283.75;5052413;28;1907;-80
2021/06/16 02:17:29;;;;;;;;;;;;;;;19.89;73.50;100283.91;5028890;28;1445;-80
2021/06/16 02:19:57;;;;;;;;;;;;;;;19.91;72.96;100311.41;5037761;28;1081;-80
2021/06/16 02:22:25;;;;;;;;;;;;;;;19.91;73.66;100273.84;5046658;28;1804;-81
2021/06/16 02:24:52;;;;;;;;;;;;;;;19.91;73.66;100300.69;5035986;28;1581;-80
2021/06/16 02:27:19;;;;;;;;;;;;;;;19.89;74.03;100297.31;5032881;28;1485;-81
2021/06/16 02:29:52;;;;;;;;;;;;;;;19.90;74.03;100309.75;5033175;28;1629;-84
2021/06/16 02:32:29;;;;;;;;;;;;;;;19.90;73.74;100310.59;5029967;28;1414;-82
2021/06/16 02:34:58;;;;;;;;;;;;;;;19.91;74.07;100311.41;5035631;28;1910;-81
2021/06/16 02:37:28;;;;;;;;;;;;;;;19.88;74.41;100301.00;5031346;28;1450;-83
2021/06/16 02:39:57;;;;;;;;;;;;;;;19.92;73.47;100316.63;5030337;28;1477;-82
2021/06/16 02:42:24;;;;;;;;;;;;;;;19.87;74.86;100300.13;5036787;28;1089;-81
2021/06/16 02:44:52;;;;;;;;;;;;;;;19.85;74.77;100318.22;5030579;28;1561;-83
2021/06/16 02:47:20;;;;;;;;;;;;;;;19.90;74.29;100329.38;5032759;28;1467;-79
2021/06/16 02:49:54;;;;;;;;;;;;;;;19.89;74.31;100324.16;5036503;28;1614;-83
2021/06/16 02:52:29;;;;;;;;;;;;;;;19.89;74.52;100340.25;5030048;28;1582;-80
2021/06/16 02:55:03;;;;;;;;;;;;;;;19.85;73.25;100340.53;5034533;28;2223;-83
2021/06/16 02:57:31;;;;;;;;;;;;;;;19.84;73.75;100344.22;5043711;28;1360;-80
2021/06/16 03:00:00;;;;;;;;;;;;;;;19.90;73.92;100350.84;5055713;28;1593;-80
2021/06/16 03:02:28;;;;;;;;;;;;;;;19.88;74.28;100343.94;5043906;28;1478;-80
2021/06/16 03:04:56;;;;;;;;;;;;;;;19.91;73.57;100330.19;5036247;28;1577;-80
2021/06/16 03:07:29;;;;;;;;;;;;;;;19.88;74.13;100336.72;5037164;28;1532;-83
2021/06/16 03:09:57;;;;;;;;;;;;;;;19.88;74.22;100343.94;5041262;28;1556;-87
2021/06/16 03:12:26;;;;;;;;;;;;;;;19.91;74.00;100354.34;5036057;28;1840;-80
2021/06/16 03:14:52;;;;;;;;;;;;;;;19.94;73.91;100365.63;5036411;28;1983;-84
2021/06/16 03:17:20;;;;;;;;;;;;;;;19.98;73.49;100350.91;5040435;28;1636;-83
2021/06/16 03:19:48;;;;;;;;;;;;;;;19.97;74.07;100353.75;5036179;28;1513;-78
2021/06/16 03:22:15;;;;;;;;;;;;;;;19.98;73.89;100363.50;5036148;28;1660;-79
2021/06/16 03:24:45;;;;;;;;;;;;;;;19.98;74.79;100345.53;5051796;28;1581;-82
2021/06/16 03:27:12;;;;;;;;;;;;;;;20.01;74.73;100355.13;5051512;28;1110;-80
2021/06/16 03:29:40;;;;;;;;;;;;;;;19.98;74.58;100360.81;5046826;28;1645;-80
2021/06/16 03:32:09;;;;;;;;;;;;;;;19.95;74.44;100366.47;5030106;28;1691;-83
2021/06/16 03:34:36;;;;;;;;;;;;;;;19.94;75.39;100359.44;5036140;28;1910;-80
2021/06/16 03:37:03;;;;;;;;;;;;;;;19.90;75.25;100360.72;5036630;28;1564;-82
2021/06/16 03:39:31;;;;;;;;;;;;;;;19.90;74.84;100363.41;5038193;28;1365;-83
2021/06/16 03:41:57;;;;;;;;;;;;;;;19.93;74.44;100355.03;5035662;28;1710;-83
2021/06/16 03:44:24;;;;;;;;;;;;;;;19.94;73.94;100352.22;5034947;28;1492;-79
2021/06/16 03:46:54;;;;;;;;;;;;;;;19.90;74.90;100355.38;5034370;28;1546;-79
2021/06/16 03:49:21;;;;;;;;;;;;;;;19.92;74.68;100350.69;5036371;28;1584;-79
2021/06/16 03:51:48;;;;;;;;;;;;;;;19.93;75.01;100365.78;5053669;28;1310;-83
2021/06/16 03:54:21;;;;;;;;;;;;;;;19.88;75.15;100360.03;5036360;28;1473;-82
2021/06/16 03:56:48;;;;;;;;;;;;;;;19.92;74.86;100374.84;5041355;23;3500;-43
2021/06/16 03:59:15;;;;;;;;;;;;;;;19.91;75.11;100382.03;5010542;28;1750;-42
2021/06/16 04:01:42;;;;;;;;;;;;;;;19.92;75.61;100386.41;5009249;28;2039;-42
2021/06/16 04:04:11;;;;;;;;;;;;;;;19.89;74.91;100392.06;5007300;28;1465;-43
2021/06/16 04:06:38;;;;;;;;;;;;;;;19.88;75.67;100400.28;5006758;28;1434;-42
2021/06/16 04:09:05;;;;;;;;;;;;;;;19.86;74.93;100379.81;5006959;28;1253;-43
2021/06/16 04:11:32;;;;;;;;;;;;;;;19.88;74.70;100405.66;5007057;28;2018;-42
2021/06/16 04:13:59;;;;;;;;;;;;;;;19.90;74.76;100395.63;5009224;28;1528;-43
2021/06/16 04:16:26;;;;;;;;;;;;;;;19.91;75.21;100410.72;5007574;28;1946;-43
2021/06/16 04:18:53;;;;;;;;;;;;;;;19.91;74.40;100397.28;5007041;28;1379;-43
2021/06/16 04:21:21;;;;;;;;;;;;;;;19.91;73.86;100381.19;5006110;28;1594;-42
2021/06/16 04:23:48;;;;;;;;;;;;;;;19.90;74.66;100396.44;5007602;28;1479;-43
2021/06/16 04:26:14;;;;;;;;;;;;;;;19.89;74.77;100399.28;5005827;28;1482;-42
2021/06/16 04:28:41;;;;;;;;;;;;;;;19.94;74.39;100405.06;5010029;28;1901;-43
2021/06/16 04:31:07;;;;;;;;;;;;;;;19.89;74.44;100394.75;5007396;28;1578;-42
2021/06/16 04:33:34;;;;;;;;;;;;;;;19.93;74.19;100406.03;5007655;28;1636;-42
2021/06/16 04:36:01;;;;;;;;;;;;;;;19.90;74.73;100400.97;5003218;28;1902;-42
2021/06/16 04:38:29;;;;;;;;;;;;;;;19.90;74.32;100398.31;5003114;28;1453;-42
2021/06/16 04:40:56;;;;;;;;;;;;;;;19.89;75.03;100404.66;5003228;28;1649;-42
2021/06/16 04:43:23;;;;;;;;;;;;;;;19.93;74.75;100406.03;4999514;28;1002;-42
2021/06/16 04:45:50;;;;;;;;;;;;;;;19.92;74.78;100407.88;5005128;28;1754;-43
2021/06/16 04:48:17;;;;;;;;;;;;;;;19.91;74.90;100408.03;5000662;28;1508;-42
2021/06/16 04:50:43;;;;;;;;;;;;;;;19.89;75.19;100394.75;5006458;28;1578;-42
2021/06/16 04:53:10;;;;;;;;;;;;;;;19.92;74.21;100410.56;5002844;28;2013;-42
2021/06/16 04:55:38;;;;;;;;;;;;;;;19.90;74.40;100411.72;5003158;28;1983;-43
2021/06/16 04:58:05;;;;;;;;;;;;;;;19.92;75.30;100415.09;5003655;28;1737;-42
2021/06/16 05:00:31;;;;;;;;;;;;;;;19.89;75.49;100401.97;4999767;28;1878;-43
2021/06/16 05:02:59;;;;;;;;;;;;;;;19.95;74.62;100409.41;4998881;28;2617;-43
2021/06/16 05:05:26;;;;;;;;;;;;;;;19.94;74.98;100405.88;4997779;28;1618;-42
2021/06/16 05:07:52;;;;;;;;;;;;;;;19.92;74.66;100404.34;5001483;28;2246;-44
2021/06/16 05:10:19;;;;;;;;;;;;;;;19.94;74.43;100426.53;5006032;28;1620;-43
2021/06/16 05:12:47;;;;;;;;;;;;;;;20.00;74.32;100434.81;5006148;28;1659;-42
2021/06/16 05:15:15;;;;;;;;;;;;;;;20.00;75.22;100432.13;5007259;28;1914;-43
2021/06/16 05:17:42;;;;;;;;;;;;;;;20.02;75.34;100443.56;5004856;28;1519;-42
2021/06/16 05:20:10;;;;;;;;;;;;;;;19.99;75.80;100433.09;5006097;28;1493;-42
2021/06/16 05:22:37;;;;;;;;;;;;;;;19.96;75.94;100427.22;5003474;28;1497;-43
2021/06/16 05:25:05;;;;;;;;;;;;;;;20.00;75.94;100436.66;5000116;28;1552;-43
2021/06/16 05:27:32;;;;;;;;;;;;;;;19.98;75.59;100439.47;5001127;28;1498;-43
2021/06/16 05:30:00;;;;;;;;;;;;;;;20.01;75.58;100436.47;5002377;28;1494;-42
2021/06/16 05:32:26;;;;;;;;;;;;;;;20.11;75.23;100436.44;5006079;28;1485;-42
2021/06/16 05:34:53;;;;;;;;;;;;;;;20.10;75.55;100426.69;5002390;28;2841;-43
2021/06/16 05:37:20;;;;;;;;;;;;;;;20.12;75.34;100439.97;5005415;28;1963;-43
2021/06/16 05:39:46;;;;;;;;;;;;;;;20.12;74.79;100464.97;5001793;28;1704;-42
2021/06/16 05:42:13;;;;;;;;;;;;;;;20.04;75.77;100451.47;5004313;28;2072;-43
2021/06/16 05:44:39;;;;;;;;;;;;;;;19.95;74.70;100461.25;5007394;28;2231;-43
2021/06/16 05:47:07;;;;;;;;;;;;;;;19.97;75.72;100461.94;5004259;28;1663;-42
2021/06/16 05:49:34;;;;;;;;;;;;;;;19.96;75.76;100456.75;5000207;28;1593;-43
2021/06/16 05:52:00;;;;;;;;;;;;;;;19.98;75.22;100469.00;5004479;28;1827;-42
2021/06/16 05:54:27;;;;;;;;;;;;;;;19.98;76.12;100468.16;5000577;28;1551;-42
2021/06/16 05:56:54;;;;;;;;;;;;;;;20.00;74.83;100468.88;5008469;28;1898;-43
2021/06/16 05:59:21;;;;;;;;;;;;;;;20.04;75.15;100487.19;5008106;28;1504;-43
2021/06/16 06:01:47;;;;;;;;;;;;;;;19.99;75.15;100484.09;5002319;28;1807;-43
2021/06/16 06:04:15;;;;;;;;;;;;;;;19.96;76.17;100478.22;5005733;28;2005;-43
2021/06/16 06:06:41;;;;;;;;;;;;;;;19.99;75.21;100467.16;5003423;28;1645;-42
2021/06/16 06:09:09;;;;;;;;;;;;;;;20.12;75.30;100486.44;5003875;28;1775;-42
2021/06/16 06:11:36;;;;;;;;;;;;;;;20.05;75.37;100466.56;5008414;28;1521;-42
